sensor_id;sensor_type;location;lat;lon;timestamp;P1;durP1;ratioP1;P2;durP2;ratioP2
3733;SDS011;1882;52.256;8.874;2022-11-15T00:00:36;12.43;;;8.20;;
3733;SDS011;1882;52.256;8.874;2022-11-15T00:03:22;11.03;;;7.70;;
3733;SDS011;1882;52.256;8.874;2022-11-15T00:06:09;12.17;;;7.87;;
3733;SDS011;1882;52.256;8.874;2022-11-15T00:08:54;11.03;;;7.93;;
3733;SDS011;1882;52.256;8.874;2022-11-15T00:11:39;11.60;;;7.43;;
3733;SDS011;1882;52.256;8.874;2022-11-15T00:14:25;13.40;;;7.93;;
3733;SDS011;1882;52.256;8.874;2022-11-15T00:17:10;14.07;;;8.20;;
3733;SDS011;1882;52.256;8.874;2022-11-15T00:19:58;10.73;;;7.57;;
3733;SDS011;1882;52.256;8.874;2022-11-15T00:22:44;11.10;;;7.60;;
3733;SDS011;1882;52.256;8.874;2022-11-15T00:25:32;11.30;;;7.43;;
3733;SDS011;1882;52.256;8.874;2022-11-15T00:28:18;10.43;;;6.70;;
3733;SDS011;1882;52.256;8.874;2022-11-15T00:31:04;11.57;;;7.27;;
3733;SDS011;1882;52.256;8.874;2022-11-15T00:33:50;11.10;;;7.70;;
3733;SDS011;1882;52.256;8.874;2022-11-15T00:36:36;11.03;;;7.47;;
3733;SDS011;1882;52.256;8.874;2022-11-15T00:39:21;14.00;;;7.30;;
3733;SDS011;1882;52.256;8.874;2022-11-15T00:42:07;12.53;;;8.03;;
3733;SDS011;1882;52.256;8.874;2022-11-15T00:44:52;10.37;;;7.23;;
3733;SDS011;1882;52.256;8.874;2022-11-15T00:47:37;11.03;;;7.30;;
3733;SDS011;1882;52.256;8.874;2022-11-15T00:50:23;10.43;;;7.67;;
3733;SDS011;1882;52.256;8.874;2022-11-15T00:53:09;11.67;;;7.20;;
3733;SDS011;1882;52.256;8.874;2022-11-15T00:55:55;9.13;;;7.10;;
3733;SDS011;1882;52.256;8.874;2022-11-15T00:58:40;7.70;;;6.27;;
3733;SDS011;1882;52.256;8.874;2022-11-15T01:01:25;8.90;;;6.10;;
3733;SDS011;1882;52.256;8.874;2022-11-15T01:04:11;9.07;;;6.67;;
3733;SDS011;1882;52.256;8.874;2022-11-15T01:06:56;15.40;;;7.50;;
3733;SDS011;1882;52.256;8.874;2022-11-15T01:09:41;10.70;;;7.20;;
3733;SDS011;1882;52.256;8.874;2022-11-15T01:12:27;14.80;;;8.13;;
3733;SDS011;1882;52.256;8.874;2022-11-15T01:15:12;10.53;;;7.63;;
3733;SDS011;1882;52.256;8.874;2022-11-15T01:17:58;12.17;;;7.23;;
3733;SDS011;1882;52.256;8.874;2022-11-15T01:20:54;10.97;;;7.43;;
3733;SDS011;1882;52.256;8.874;2022-11-15T01:23:40;11.90;;;7.37;;
3733;SDS011;1882;52.256;8.874;2022-11-15T01:26:26;11.40;;;7.60;;
3733;SDS011;1882;52.256;8.874;2022-11-15T01:29:11;12.67;;;8.20;;
3733;SDS011;1882;52.256;8.874;2022-11-15T01:31:57;12.70;;;7.60;;
3733;SDS011;1882;52.256;8.874;2022-11-15T01:34:42;10.73;;;7.97;;
3733;SDS011;1882;52.256;8.874;2022-11-15T01:37:28;10.80;;;7.00;;
3733;SDS011;1882;52.256;8.874;2022-11-15T01:40:14;11.37;;;7.33;;
3733;SDS011;1882;52.256;8.874;2022-11-15T01:43:17;10.97;;;7.30;;
3733;SDS011;1882;52.256;8.874;2022-11-15T01:49:20;11.83;;;7.70;;
3733;SDS011;1882;52.256;8.874;2022-11-15T01:52:12;10.53;;;7.83;;
3733;SDS011;1882;52.256;8.874;2022-11-15T01:55:08;10.37;;;8.00;;
3733;SDS011;1882;52.256;8.874;2022-11-15T01:57:57;12.37;;;8.30;;
3733;SDS011;1882;52.256;8.874;2022-11-15T02:00:45;11.77;;;8.30;;
3733;SDS011;1882;52.256;8.874;2022-11-15T02:03:33;13.20;;;8.40;;
3733;SDS011;1882;52.256;8.874;2022-11-15T02:06:21;13.90;;;8.40;;
3733;SDS011;1882;52.256;8.874;2022-11-15T02:09:06;13.67;;;8.00;;
3733;SDS011;1882;52.256;8.874;2022-11-15T02:11:52;13.13;;;8.70;;
3733;SDS011;1882;52.256;8.874;2022-11-15T02:14:39;14.17;;;8.97;;
3733;SDS011;1882;52.256;8.874;2022-11-15T02:17:37;15.17;;;8.73;;
3733;SDS011;1882;52.256;8.874;2022-11-15T02:20:50;18.53;;;9.57;;
3733;SDS011;1882;52.256;8.874;2022-11-15T02:30:18;15.63;;;9.50;;
3733;SDS011;1882;52.256;8.874;2022-11-15T02:33:34;14.37;;;9.50;;
3733;SDS011;1882;52.256;8.874;2022-11-15T02:36:54;20.50;;;10.27;;
3733;SDS011;1882;52.256;8.874;2022-11-15T02:42:44;18.50;;;10.20;;
3733;SDS011;1882;52.256;8.874;2022-11-15T02:45:54;17.30;;;10.20;;
3733;SDS011;1882;52.256;8.874;2022-11-15T02:48:45;16.60;;;10.40;;
3733;SDS011;1882;52.256;8.874;2022-11-15T02:51:33;18.90;;;11.57;;
3733;SDS011;1882;52.256;8.874;2022-11-15T02:54:22;21.47;;;10.73;;
3733;SDS011;1882;52.256;8.874;2022-11-15T02:57:13;16.00;;;10.47;;
3733;SDS011;1882;52.256;8.874;2022-11-15T03:08:27;19.23;;;11.87;;
3733;SDS011;1882;52.256;8.874;2022-11-15T03:11:19;16.37;;;11.63;;
3733;SDS011;1882;52.256;8.874;2022-11-15T03:20:09;24.00;;;12.03;;
3733;SDS011;1882;52.256;8.874;2022-11-15T03:23:30;18.23;;;11.87;;
3733;SDS011;1882;52.256;8.874;2022-11-15T03:26:08;19.43;;;12.10;;
3733;SDS011;1882;52.256;8.874;2022-11-15T03:28:59;20.00;;;12.40;;
3733;SDS011;1882;52.256;8.874;2022-11-15T03:31:54;20.27;;;12.03;;
3733;SDS011;1882;52.256;8.874;2022-11-15T03:35:02;18.70;;;12.27;;
3733;SDS011;1882;52.256;8.874;2022-11-15T03:40:59;19.63;;;11.57;;
3733;SDS011;1882;52.256;8.874;2022-11-15T03:46:45;21.20;;;12.37;;
3733;SDS011;1882;52.256;8.874;2022-11-15T03:49:33;22.33;;;12.00;;
3733;SDS011;1882;52.256;8.874;2022-11-15T03:52:22;20.37;;;11.93;;
3733;SDS011;1882;52.256;8.874;2022-11-15T03:55:10;17.77;;;12.10;;
3733;SDS011;1882;52.256;8.874;2022-11-15T03:58:01;18.40;;;11.10;;
3733;SDS011;1882;52.256;8.874;2022-11-15T04:00:47;19.23;;;11.67;;
3733;SDS011;1882;52.256;8.874;2022-11-15T04:03:32;19.47;;;11.97;;
3733;SDS011;1882;52.256;8.874;2022-11-15T04:06:18;24.07;;;12.53;;
3733;SDS011;1882;52.256;8.874;2022-11-15T04:09:03;20.47;;;12.60;;
3733;SDS011;1882;52.256;8.874;2022-11-15T04:11:49;25.23;;;12.10;;
3733;SDS011;1882;52.256;8.874;2022-11-15T04:14:34;18.87;;;11.60;;
3733;SDS011;1882;52.256;8.874;2022-11-15T04:17:22;18.47;;;10.77;;
3733;SDS011;1882;52.256;8.874;2022-11-15T04:20:08;14.43;;;10.87;;
3733;SDS011;1882;52.256;8.874;2022-11-15T04:23:22;19.40;;;10.90;;
3733;SDS011;1882;52.256;8.874;2022-11-15T04:26:26;16.70;;;10.90;;
3733;SDS011;1882;52.256;8.874;2022-11-15T04:29:11;23.13;;;11.43;;
3733;SDS011;1882;52.256;8.874;2022-11-15T04:32:16;17.57;;;11.50;;
3733;SDS011;1882;52.256;8.874;2022-11-15T04:35:01;15.20;;;10.53;;
3733;SDS011;1882;52.256;8.874;2022-11-15T04:37:47;17.50;;;11.00;;
3733;SDS011;1882;52.256;8.874;2022-11-15T04:40:33;18.70;;;10.43;;
3733;SDS011;1882;52.256;8.874;2022-11-15T04:43:19;17.23;;;11.27;;
3733;SDS011;1882;52.256;8.874;2022-11-15T04:46:05;17.40;;;11.67;;
3733;SDS011;1882;52.256;8.874;2022-11-15T04:48:51;18.70;;;10.67;;
3733;SDS011;1882;52.256;8.874;2022-11-15T04:51:42;17.50;;;10.73;;
3733;SDS011;1882;52.256;8.874;2022-11-15T04:54:28;16.60;;;11.60;;
3733;SDS011;1882;52.256;8.874;2022-11-15T04:57:13;18.47;;;11.10;;
3733;SDS011;1882;52.256;8.874;2022-11-15T04:59:59;18.07;;;11.10;;
3733;SDS011;1882;52.256;8.874;2022-11-15T05:02:44;17.03;;;10.97;;
3733;SDS011;1882;52.256;8.874;2022-11-15T05:05:48;13.10;;;9.60;;
3733;SDS011;1882;52.256;8.874;2022-11-15T05:08:34;15.50;;;10.23;;
3733;SDS011;1882;52.256;8.874;2022-11-15T05:11:22;16.07;;;10.60;;
3733;SDS011;1882;52.256;8.874;2022-11-15T05:14:07;16.77;;;11.33;;
3733;SDS011;1882;52.256;8.874;2022-11-15T05:16:52;16.60;;;10.90;;
3733;SDS011;1882;52.256;8.874;2022-11-15T05:19:41;14.60;;;10.33;;
3733;SDS011;1882;52.256;8.874;2022-11-15T05:22:26;15.10;;;9.73;;
3733;SDS011;1882;52.256;8.874;2022-11-15T05:25:13;18.20;;;10.73;;
3733;SDS011;1882;52.256;8.874;2022-11-15T05:27:59;19.93;;;10.27;;
3733;SDS011;1882;52.256;8.874;2022-11-15T05:30:44;13.93;;;10.00;;
3733;SDS011;1882;52.256;8.874;2022-11-15T05:33:30;13.70;;;10.17;;
3733;SDS011;1882;52.256;8.874;2022-11-15T05:39:32;17.57;;;11.40;;
3733;SDS011;1882;52.256;8.874;2022-11-15T05:42:17;16.60;;;9.80;;
3733;SDS011;1882;52.256;8.874;2022-11-15T05:45:07;18.70;;;11.20;;
3733;SDS011;1882;52.256;8.874;2022-11-15T05:51:13;14.43;;;10.00;;
3733;SDS011;1882;52.256;8.874;2022-11-15T05:54:11;16.70;;;9.90;;
3733;SDS011;1882;52.256;8.874;2022-11-15T05:57:00;18.00;;;9.23;;
3733;SDS011;1882;52.256;8.874;2022-11-15T05:59:45;15.20;;;9.77;;
3733;SDS011;1882;52.256;8.874;2022-11-15T06:02:31;15.10;;;9.27;;
3733;SDS011;1882;52.256;8.874;2022-11-15T06:05:16;17.03;;;10.13;;
3733;SDS011;1882;52.256;8.874;2022-11-15T06:08:02;13.17;;;9.20;;
3733;SDS011;1882;52.256;8.874;2022-11-15T06:10:47;13.43;;;9.23;;
3733;SDS011;1882;52.256;8.874;2022-11-15T06:13:33;14.00;;;8.87;;
3733;SDS011;1882;52.256;8.874;2022-11-15T06:16:21;14.50;;;9.20;;
3733;SDS011;1882;52.256;8.874;2022-11-15T06:19:07;13.33;;;9.37;;
3733;SDS011;1882;52.256;8.874;2022-11-15T06:21:52;12.50;;;8.97;;
3733;SDS011;1882;52.256;8.874;2022-11-15T06:24:41;12.50;;;8.20;;
3733;SDS011;1882;52.256;8.874;2022-11-15T06:27:26;13.13;;;9.10;;
3733;SDS011;1882;52.256;8.874;2022-11-15T06:30:11;14.13;;;8.77;;
3733;SDS011;1882;52.256;8.874;2022-11-15T06:32:59;11.87;;;7.70;;
3733;SDS011;1882;52.256;8.874;2022-11-15T06:35:53;15.27;;;8.30;;
3733;SDS011;1882;52.256;8.874;2022-11-15T06:38:38;16.10;;;9.13;;
3733;SDS011;1882;52.256;8.874;2022-11-15T06:41:34;14.83;;;8.67;;
3733;SDS011;1882;52.256;8.874;2022-11-15T06:44:20;13.03;;;8.27;;
3733;SDS011;1882;52.256;8.874;2022-11-15T06:47:08;11.50;;;8.00;;
3733;SDS011;1882;52.256;8.874;2022-11-15T06:49:53;12.33;;;7.87;;
3733;SDS011;1882;52.256;8.874;2022-11-15T06:52:39;13.10;;;7.80;;
3733;SDS011;1882;52.256;8.874;2022-11-15T06:55:27;12.63;;;8.20;;
3733;SDS011;1882;52.256;8.874;2022-11-15T06:58:13;12.20;;;7.10;;
3733;SDS011;1882;52.256;8.874;2022-11-15T07:01:09;11.67;;;8.10;;
3733;SDS011;1882;52.256;8.874;2022-11-15T07:03:58;9.77;;;7.20;;
3733;SDS011;1882;52.256;8.874;2022-11-15T07:06:45;12.60;;;8.10;;
3733;SDS011;1882;52.256;8.874;2022-11-15T07:09:32;10.27;;;7.37;;
3733;SDS011;1882;52.256;8.874;2022-11-15T07:12:22;13.30;;;7.90;;
3733;SDS011;1882;52.256;8.874;2022-11-15T07:15:07;12.10;;;7.70;;
3733;SDS011;1882;52.256;8.874;2022-11-15T07:17:53;10.00;;;7.20;;
3733;SDS011;1882;52.256;8.874;2022-11-15T07:20:45;14.07;;;7.53;;
3733;SDS011;1882;52.256;8.874;2022-11-15T07:23:31;10.53;;;7.20;;
3733;SDS011;1882;52.256;8.874;2022-11-15T07:26:35;13.13;;;7.53;;
3733;SDS011;1882;52.256;8.874;2022-11-15T07:29:20;13.30;;;7.73;;
3733;SDS011;1882;52.256;8.874;2022-11-15T07:32:11;10.00;;;7.37;;
3733;SDS011;1882;52.256;8.874;2022-11-15T07:34:58;11.07;;;7.50;;
3733;SDS011;1882;52.256;8.874;2022-11-15T07:37:43;11.23;;;7.30;;
3733;SDS011;1882;52.256;8.874;2022-11-15T07:40:30;10.50;;;7.97;;
3733;SDS011;1882;52.256;8.874;2022-11-15T07:43:16;14.33;;;7.10;;
3733;SDS011;1882;52.256;8.874;2022-11-15T07:46:05;8.70;;;6.90;;
3733;SDS011;1882;52.256;8.874;2022-11-15T07:49:23;10.17;;;6.90;;
3733;SDS011;1882;52.256;8.874;2022-11-15T07:52:09;9.40;;;7.03;;
3733;SDS011;1882;52.256;8.874;2022-11-15T07:54:54;10.57;;;7.00;;
3733;SDS011;1882;52.256;8.874;2022-11-15T07:57:40;14.33;;;7.20;;
3733;SDS011;1882;52.256;8.874;2022-11-15T08:03:36;10.40;;;6.83;;
3733;SDS011;1882;52.256;8.874;2022-11-15T08:06:22;8.80;;;6.57;;
3733;SDS011;1882;52.256;8.874;2022-11-15T08:09:07;8.97;;;6.13;;
3733;SDS011;1882;52.256;8.874;2022-11-15T08:11:52;9.17;;;6.03;;
3733;SDS011;1882;52.256;8.874;2022-11-15T08:14:43;8.80;;;5.90;;
3733;SDS011;1882;52.256;8.874;2022-11-15T08:17:29;7.00;;;5.63;;
3733;SDS011;1882;52.256;8.874;2022-11-15T08:20:30;8.67;;;6.20;;
3733;SDS011;1882;52.256;8.874;2022-11-15T08:23:16;8.00;;;5.57;;
3733;SDS011;1882;52.256;8.874;2022-11-15T08:26:02;8.43;;;5.73;;
3733;SDS011;1882;52.256;8.874;2022-11-15T08:28:48;7.80;;;5.20;;
3733;SDS011;1882;52.256;8.874;2022-11-15T08:31:34;7.73;;;5.37;;
3733;SDS011;1882;52.256;8.874;2022-11-15T08:34:21;8.50;;;5.60;;
3733;SDS011;1882;52.256;8.874;2022-11-15T08:37:10;7.70;;;5.90;;
3733;SDS011;1882;52.256;8.874;2022-11-15T08:39:55;7.23;;;5.50;;
3733;SDS011;1882;52.256;8.874;2022-11-15T08:42:41;6.90;;;5.07;;
3733;SDS011;1882;52.256;8.874;2022-11-15T08:45:26;8.03;;;5.63;;
3733;SDS011;1882;52.256;8.874;2022-11-15T08:48:11;6.43;;;5.30;;
3733;SDS011;1882;52.256;8.874;2022-11-15T08:50:57;9.10;;;5.47;;
3733;SDS011;1882;52.256;8.874;2022-11-15T08:53:42;7.93;;;5.00;;
3733;SDS011;1882;52.256;8.874;2022-11-15T08:56:39;5.63;;;5.00;;
3733;SDS011;1882;52.256;8.874;2022-11-15T08:59:24;7.00;;;4.97;;
3733;SDS011;1882;52.256;8.874;2022-11-15T09:02:11;6.47;;;4.90;;
3733;SDS011;1882;52.256;8.874;2022-11-15T09:04:58;6.87;;;5.13;;
3733;SDS011;1882;52.256;8.874;2022-11-15T09:07:45;9.83;;;5.23;;
3733;SDS011;1882;52.256;8.874;2022-11-15T09:10:31;5.90;;;4.87;;
3733;SDS011;1882;52.256;8.874;2022-11-15T09:13:16;6.73;;;4.63;;
3733;SDS011;1882;52.256;8.874;2022-11-15T09:16:02;11.07;;;5.13;;
3733;SDS011;1882;52.256;8.874;2022-11-15T09:18:52;8.47;;;4.37;;
3733;SDS011;1882;52.256;8.874;2022-11-15T09:21:37;7.70;;;4.60;;
3733;SDS011;1882;52.256;8.874;2022-11-15T09:24:23;6.80;;;5.07;;
3733;SDS011;1882;52.256;8.874;2022-11-15T09:27:11;5.50;;;3.93;;
3733;SDS011;1882;52.256;8.874;2022-11-15T09:29:58;9.20;;;4.20;;
3733;SDS011;1882;52.256;8.874;2022-11-15T09:32:50;5.93;;;3.93;;
3733;SDS011;1882;52.256;8.874;2022-11-15T09:35:42;5.10;;;4.00;;
3733;SDS011;1882;52.256;8.874;2022-11-15T09:38:28;4.63;;;4.10;;
3733;SDS011;1882;52.256;8.874;2022-11-15T09:41:25;5.80;;;3.93;;
3733;SDS011;1882;52.256;8.874;2022-11-15T09:50:28;4.23;;;3.60;;
3733;SDS011;1882;52.256;8.874;2022-11-15T09:53:11;4.27;;;3.87;;
3733;SDS011;1882;52.256;8.874;2022-11-15T09:56:36;3.40;;;3.10;;
3733;SDS011;1882;52.256;8.874;2022-11-15T10:02:27;3.43;;;3.00;;
3733;SDS011;1882;52.256;8.874;2022-11-15T10:05:04;4.57;;;3.53;;
3733;SDS011;1882;52.256;8.874;2022-11-15T10:07:44;5.23;;;3.07;;
3733;SDS011;1882;52.256;8.874;2022-11-15T10:13:26;4.27;;;3.23;;
3733;SDS011;1882;52.256;8.874;2022-11-15T10:15:58;4.40;;;3.80;;
3733;SDS011;1882;52.256;8.874;2022-11-15T10:24:46;3.10;;;2.80;;
3733;SDS011;1882;52.256;8.874;2022-11-15T10:27:17;4.97;;;2.87;;
3733;SDS011;1882;52.256;8.874;2022-11-15T10:29:45;2.60;;;2.40;;
3733;SDS011;1882;52.256;8.874;2022-11-15T10:32:18;2.67;;;2.47;;
3733;SDS011;1882;52.256;8.874;2022-11-15T10:34:48;4.73;;;2.70;;
3733;SDS011;1882;52.256;8.874;2022-11-15T10:37:26;3.23;;;2.63;;
3733;SDS011;1882;52.256;8.874;2022-11-15T10:46:14;3.20;;;2.57;;
3733;SDS011;1882;52.256;8.874;2022-11-15T10:49:22;2.50;;;2.30;;
3733;SDS011;1882;52.256;8.874;2022-11-15T10:55:03;6.20;;;2.70;;
3733;SDS011;1882;52.256;8.874;2022-11-15T10:57:39;2.77;;;2.37;;
3733;SDS011;1882;52.256;8.874;2022-11-15T11:00:12;2.77;;;2.40;;
3733;SDS011;1882;52.256;8.874;2022-11-15T11:03:19;3.03;;;2.23;;
3733;SDS011;1882;52.256;8.874;2022-11-15T11:06:07;3.40;;;2.30;;
3733;SDS011;1882;52.256;8.874;2022-11-15T11:08:39;3.60;;;2.10;;
3733;SDS011;1882;52.256;8.874;2022-11-15T11:11:08;2.40;;;2.20;;
3733;SDS011;1882;52.256;8.874;2022-11-15T11:13:48;2.30;;;2.07;;
3733;SDS011;1882;52.256;8.874;2022-11-15T11:24:56;2.90;;;2.40;;
3733;SDS011;1882;52.256;8.874;2022-11-15T11:39:35;2.30;;;2.10;;
3733;SDS011;1882;52.256;8.874;2022-11-15T11:42:32;2.40;;;2.20;;
3733;SDS011;1882;52.256;8.874;2022-11-15T11:47:29;2.50;;;2.30;;
3733;SDS011;1882;52.256;8.874;2022-11-15T11:50:10;2.83;;;2.20;;
3733;SDS011;1882;52.256;8.874;2022-11-15T11:52:50;2.97;;;2.30;;
3733;SDS011;1882;52.256;8.874;2022-11-15T11:55:40;3.30;;;2.20;;
3733;SDS011;1882;52.256;8.874;2022-11-15T11:59:07;2.40;;;2.17;;
3733;SDS011;1882;52.256;8.874;2022-11-15T12:01:42;2.50;;;2.30;;
3733;SDS011;1882;52.256;8.874;2022-11-15T12:04:18;3.23;;;2.70;;
3733;SDS011;1882;52.256;8.874;2022-11-15T12:07:01;2.63;;;2.40;;
3733;SDS011;1882;52.256;8.874;2022-11-15T12:12:48;2.70;;;2.30;;
3733;SDS011;1882;52.256;8.874;2022-11-15T12:15:18;4.37;;;2.30;;
3733;SDS011;1882;52.256;8.874;2022-11-15T12:18:00;3.67;;;2.43;;
3733;SDS011;1882;52.256;8.874;2022-11-15T12:20:32;2.77;;;2.50;;
3733;SDS011;1882;52.256;8.874;2022-11-15T12:23:11;2.97;;;2.67;;
3733;SDS011;1882;52.256;8.874;2022-11-15T12:45:42;2.93;;;2.50;;
3733;SDS011;1882;52.256;8.874;2022-11-15T13:09:58;3.00;;;2.70;;
3733;SDS011;1882;52.256;8.874;2022-11-15T13:15:08;4.43;;;3.10;;
3733;SDS011;1882;52.256;8.874;2022-11-15T13:21:05;3.50;;;3.20;;
3733;SDS011;1882;52.256;8.874;2022-11-15T13:24:03;5.70;;;3.40;;
3733;SDS011;1882;52.256;8.874;2022-11-15T13:26:33;3.80;;;3.40;;
3733;SDS011;1882;52.256;8.874;2022-11-15T13:29:00;3.33;;;3.00;;
3733;SDS011;1882;52.256;8.874;2022-11-15T13:31:28;3.60;;;3.00;;
3733;SDS011;1882;52.256;8.874;2022-11-15T13:34:14;4.10;;;3.07;;
3733;SDS011;1882;52.256;8.874;2022-11-15T13:37:32;3.73;;;3.00;;
3733;SDS011;1882;52.256;8.874;2022-11-15T13:40:41;4.10;;;3.03;;
3733;SDS011;1882;52.256;8.874;2022-11-15T13:42:57;4.90;;;3.37;;
3733;SDS011;1882;52.256;8.874;2022-11-15T13:45:46;3.80;;;2.93;;
3733;SDS011;1882;52.256;8.874;2022-11-15T13:48:11;7.00;;;3.07;;
3733;SDS011;1882;52.256;8.874;2022-11-15T13:50:38;3.40;;;3.10;;
3733;SDS011;1882;52.256;8.874;2022-11-15T13:53:15;3.43;;;3.07;;
3733;SDS011;1882;52.256;8.874;2022-11-15T13:55:44;6.13;;;3.20;;
3733;SDS011;1882;52.256;8.874;2022-11-15T13:58:11;5.90;;;3.17;;
3733;SDS011;1882;52.256;8.874;2022-11-15T14:00:45;4.17;;;3.17;;
3733;SDS011;1882;52.256;8.874;2022-11-15T14:03:32;4.20;;;3.30;;
3733;SDS011;1882;52.256;8.874;2022-11-15T14:06:12;8.43;;;3.37;;
3733;SDS011;1882;52.256;8.874;2022-11-15T14:11:33;3.93;;;3.37;;
3733;SDS011;1882;52.256;8.874;2022-11-15T14:16:39;4.40;;;3.20;;
3733;SDS011;1882;52.256;8.874;2022-11-15T14:25:07;3.73;;;3.00;;
3733;SDS011;1882;52.256;8.874;2022-11-15T14:28:10;3.13;;;2.77;;
3733;SDS011;1882;52.256;8.874;2022-11-15T14:30:38;4.57;;;3.20;;
3733;SDS011;1882;52.256;8.874;2022-11-15T14:33:36;3.60;;;2.90;;
3733;SDS011;1882;52.256;8.874;2022-11-15T14:41:25;3.20;;;2.70;;
3733;SDS011;1882;52.256;8.874;2022-11-15T14:43:52;2.97;;;2.70;;
3733;SDS011;1882;52.256;8.874;2022-11-15T14:46:20;3.37;;;3.07;;
3733;SDS011;1882;52.256;8.874;2022-11-15T14:48:57;4.50;;;3.00;;
3733;SDS011;1882;52.256;8.874;2022-11-15T14:51:24;3.63;;;2.70;;
3733;SDS011;1882;52.256;8.874;2022-11-15T14:53:59;3.90;;;2.90;;
3733;SDS011;1882;52.256;8.874;2022-11-15T14:56:26;4.50;;;2.87;;
3733;SDS011;1882;52.256;8.874;2022-11-15T14:58:53;5.50;;;3.00;;
3733;SDS011;1882;52.256;8.874;2022-11-15T15:01:25;4.47;;;3.00;;
3733;SDS011;1882;52.256;8.874;2022-11-15T15:04:00;6.33;;;3.03;;
3733;SDS011;1882;52.256;8.874;2022-11-15T15:06:27;4.70;;;2.80;;
3733;SDS011;1882;52.256;8.874;2022-11-15T15:09:05;3.30;;;2.70;;
3733;SDS011;1882;52.256;8.874;2022-11-15T15:11:32;3.77;;;3.17;;
3733;SDS011;1882;52.256;8.874;2022-11-15T15:14:01;4.53;;;3.00;;
3733;SDS011;1882;52.256;8.874;2022-11-15T15:16:33;4.57;;;2.90;;
3733;SDS011;1882;52.256;8.874;2022-11-15T15:19:01;3.07;;;2.73;;
3733;SDS011;1882;52.256;8.874;2022-11-15T15:21:33;5.63;;;3.17;;
3733;SDS011;1882;52.256;8.874;2022-11-15T15:24:07;4.03;;;3.10;;
3733;SDS011;1882;52.256;8.874;2022-11-15T15:26:39;3.30;;;2.87;;
3733;SDS011;1882;52.256;8.874;2022-11-15T15:29:06;4.00;;;2.73;;
3733;SDS011;1882;52.256;8.874;2022-11-15T15:31:38;5.60;;;3.23;;
3733;SDS011;1882;52.256;8.874;2022-11-15T15:34:10;5.80;;;3.30;;
3733;SDS011;1882;52.256;8.874;2022-11-15T15:36:44;6.97;;;3.40;;
3733;SDS011;1882;52.256;8.874;2022-11-15T15:39:11;4.60;;;3.37;;
3733;SDS011;1882;52.256;8.874;2022-11-15T15:41:41;3.40;;;3.10;;
3733;SDS011;1882;52.256;8.874;2022-11-15T15:44:22;7.63;;;3.53;;
3733;SDS011;1882;52.256;8.874;2022-11-15T15:46:52;5.30;;;3.23;;
3733;SDS011;1882;52.256;8.874;2022-11-15T15:49:26;4.50;;;3.40;;
3733;SDS011;1882;52.256;8.874;2022-11-15T15:51:53;5.10;;;3.83;;
3733;SDS011;1882;52.256;8.874;2022-11-15T15:54:20;5.30;;;3.93;;
3733;SDS011;1882;52.256;8.874;2022-11-15T15:56:54;7.50;;;4.40;;
3733;SDS011;1882;52.256;8.874;2022-11-15T15:59:21;6.80;;;3.73;;
3733;SDS011;1882;52.256;8.874;2022-11-15T16:01:48;4.17;;;3.50;;
3733;SDS011;1882;52.256;8.874;2022-11-15T16:04:17;5.70;;;3.23;;
3733;SDS011;1882;52.256;8.874;2022-11-15T16:06:52;4.70;;;3.37;;
3733;SDS011;1882;52.256;8.874;2022-11-15T16:09:21;4.80;;;3.10;;
3733;SDS011;1882;52.256;8.874;2022-11-15T16:12:10;5.83;;;3.57;;
3733;SDS011;1882;52.256;8.874;2022-11-15T16:14:40;9.20;;;3.60;;
3733;SDS011;1882;52.256;8.874;2022-11-15T16:17:09;5.17;;;3.67;;
3733;SDS011;1882;52.256;8.874;2022-11-15T16:19:41;5.17;;;3.60;;
3733;SDS011;1882;52.256;8.874;2022-11-15T16:22:11;7.53;;;4.13;;
3733;SDS011;1882;52.256;8.874;2022-11-15T16:24:41;7.67;;;4.50;;
3733;SDS011;1882;52.256;8.874;2022-11-15T16:27:15;4.50;;;3.60;;
3733;SDS011;1882;52.256;8.874;2022-11-15T16:29:43;9.13;;;4.27;;
3733;SDS011;1882;52.256;8.874;2022-11-15T16:32:14;5.03;;;4.00;;
3733;SDS011;1882;52.256;8.874;2022-11-15T16:34:42;6.37;;;4.13;;
3733;SDS011;1882;52.256;8.874;2022-11-15T16:37:29;6.50;;;4.03;;
3733;SDS011;1882;52.256;8.874;2022-11-15T16:43:03;5.17;;;3.70;;
3733;SDS011;1882;52.256;8.874;2022-11-15T16:45:42;6.63;;;3.37;;
3733;SDS011;1882;52.256;8.874;2022-11-15T16:51:19;6.00;;;3.17;;
3733;SDS011;1882;52.256;8.874;2022-11-15T16:54:22;5.63;;;3.80;;
3733;SDS011;1882;52.256;8.874;2022-11-15T17:00:42;6.00;;;3.60;;
3733;SDS011;1882;52.256;8.874;2022-11-15T17:03:35;6.00;;;3.80;;
3733;SDS011;1882;52.256;8.874;2022-11-15T17:06:52;5.93;;;3.60;;
3733;SDS011;1882;52.256;8.874;2022-11-15T17:09:25;6.10;;;3.80;;
3733;SDS011;1882;52.256;8.874;2022-11-15T17:11:52;5.23;;;3.50;;
3733;SDS011;1882;52.256;8.874;2022-11-15T17:14:46;7.37;;;4.57;;
3733;SDS011;1882;52.256;8.874;2022-11-15T17:17:14;6.17;;;3.67;;
3733;SDS011;1882;52.256;8.874;2022-11-15T17:19:41;12.07;;;6.30;;
3733;SDS011;1882;52.256;8.874;2022-11-15T17:22:07;9.43;;;4.90;;
3733;SDS011;1882;52.256;8.874;2022-11-15T17:24:38;6.27;;;4.53;;
3733;SDS011;1882;52.256;8.874;2022-11-15T17:27:11;7.43;;;4.40;;
3733;SDS011;1882;52.256;8.874;2022-11-15T17:29:41;13.50;;;7.90;;
3733;SDS011;1882;52.256;8.874;2022-11-15T17:32:16;9.40;;;5.77;;
3733;SDS011;1882;52.256;8.874;2022-11-15T17:34:45;11.80;;;6.70;;
3733;SDS011;1882;52.256;8.874;2022-11-15T17:37:12;12.13;;;7.40;;
3733;SDS011;1882;52.256;8.874;2022-11-15T17:39:48;7.60;;;5.37;;
3733;SDS011;1882;52.256;8.874;2022-11-15T17:42:17;6.37;;;4.30;;
3733;SDS011;1882;52.256;8.874;2022-11-15T17:44:52;6.37;;;4.70;;
3733;SDS011;1882;52.256;8.874;2022-11-15T17:47:19;10.33;;;4.87;;
3733;SDS011;1882;52.256;8.874;2022-11-15T17:50:09;6.07;;;4.23;;
3733;SDS011;1882;52.256;8.874;2022-11-15T17:52:45;5.17;;;3.97;;
3733;SDS011;1882;52.256;8.874;2022-11-15T17:55:14;12.13;;;4.93;;
3733;SDS011;1882;52.256;8.874;2022-11-15T17:57:42;7.43;;;4.53;;
3733;SDS011;1882;52.256;8.874;2022-11-15T18:00:22;10.13;;;4.93;;
3733;SDS011;1882;52.256;8.874;2022-11-15T18:03:00;8.93;;;4.83;;
3733;SDS011;1882;52.256;8.874;2022-11-15T18:05:30;8.40;;;5.00;;
3733;SDS011;1882;52.256;8.874;2022-11-15T18:11:01;8.70;;;5.17;;
3733;SDS011;1882;52.256;8.874;2022-11-15T18:25:34;6.93;;;5.30;;
3733;SDS011;1882;52.256;8.874;2022-11-15T18:33:08;6.83;;;4.90;;
3733;SDS011;1882;52.256;8.874;2022-11-15T18:36:06;8.23;;;5.70;;
3733;SDS011;1882;52.256;8.874;2022-11-15T18:41:42;8.53;;;6.03;;
3733;SDS011;1882;52.256;8.874;2022-11-15T18:44:10;8.90;;;5.80;;
3733;SDS011;1882;52.256;8.874;2022-11-15T18:46:41;8.70;;;5.50;;
3733;SDS011;1882;52.256;8.874;2022-11-15T18:49:15;8.73;;;5.57;;
3733;SDS011;1882;52.256;8.874;2022-11-15T18:51:53;9.20;;;5.90;;
3733;SDS011;1882;52.256;8.874;2022-11-15T18:54:42;11.63;;;6.07;;
3733;SDS011;1882;52.256;8.874;2022-11-15T18:57:19;8.53;;;5.77;;
3733;SDS011;1882;52.256;8.874;2022-11-15T18:59:46;9.13;;;5.80;;
3733;SDS011;1882;52.256;8.874;2022-11-15T19:02:15;7.53;;;5.30;;
3733;SDS011;1882;52.256;8.874;2022-11-15T19:04:50;7.73;;;5.13;;
3733;SDS011;1882;52.256;8.874;2022-11-15T19:07:17;9.57;;;5.70;;
3733;SDS011;1882;52.256;8.874;2022-11-15T19:10:02;9.40;;;5.37;;
3733;SDS011;1882;52.256;8.874;2022-11-15T19:12:43;8.33;;;5.37;;
3733;SDS011;1882;52.256;8.874;2022-11-15T19:15:12;8.20;;;5.10;;
3733;SDS011;1882;52.256;8.874;2022-11-15T19:17:48;9.50;;;4.93;;
3733;SDS011;1882;52.256;8.874;2022-11-15T19:20:17;8.00;;;5.53;;
3733;SDS011;1882;52.256;8.874;2022-11-15T19:22:44;8.37;;;5.47;;
3733;SDS011;1882;52.256;8.874;2022-11-15T19:25:17;6.93;;;5.30;;
3733;SDS011;1882;52.256;8.874;2022-11-15T19:28:03;7.33;;;4.80;;
3733;SDS011;1882;52.256;8.874;2022-11-15T19:30:33;7.20;;;5.33;;
3733;SDS011;1882;52.256;8.874;2022-11-15T19:33:03;8.80;;;5.83;;
3733;SDS011;1882;52.256;8.874;2022-11-15T19:35:33;13.10;;;7.63;;
3733;SDS011;1882;52.256;8.874;2022-11-15T19:37:59;7.53;;;5.10;;
3733;SDS011;1882;52.256;8.874;2022-11-15T19:40:35;7.37;;;5.03;;
3733;SDS011;1882;52.256;8.874;2022-11-15T19:43:05;8.50;;;6.10;;
3733;SDS011;1882;52.256;8.874;2022-11-15T19:45:32;8.97;;;5.30;;
3733;SDS011;1882;52.256;8.874;2022-11-15T19:48:04;7.23;;;5.00;;
3733;SDS011;1882;52.256;8.874;2022-11-15T19:50:35;9.20;;;5.27;;
3733;SDS011;1882;52.256;8.874;2022-11-15T19:53:02;7.40;;;4.70;;
3733;SDS011;1882;52.256;8.874;2022-11-15T19:55:33;10.33;;;5.40;;